createdAt,value
2018-12-15T00:01:22.728Z,88.70
2018-12-15T00:03:51.240Z,87.68
2018-12-15T00:06:19.562Z,88.29
2018-12-15T00:08:47.985Z,87.43
2018-12-15T00:11:16.510Z,86.29
2018-12-15T00:13:44.884Z,86.07
2018-12-15T00:16:13.247Z,86.72
2018-12-15T00:18:42.048Z,87.01
2018-12-15T00:21:10.641Z,86.96
2018-12-15T00:23:39.004Z,87.20
2018-12-15T00:26:07.418Z,87.27
2018-12-15T00:28:35.774Z,87.19
2018-12-15T00:31:04.073Z,87.43
2018-12-15T00:33:32.367Z,87.63
2018-12-15T00:36:00.495Z,87.39
2018-12-15T00:38:28.765Z,87.48
2018-12-15T00:40:57.031Z,88.17
2018-12-15T00:43:25.419Z,87.54
2018-12-15T00:45:53.823Z,88.23
2018-12-15T00:48:22.165Z,86.05
2018-12-15T00:50:50.467Z,85.99
2018-12-15T00:53:19.068Z,85.75
2018-12-15T00:55:47.489Z,85.75
2018-12-15T00:58:16.246Z,86.08
2018-12-15T01:00:44.663Z,87.33
2018-12-15T01:03:13.003Z,87.28
2018-12-15T01:05:41.773Z,86.84
2018-12-15T01:08:10.233Z,85.90
2018-12-15T01:10:38.540Z,85.48
2018-12-15T01:13:06.734Z,85.67
2018-12-15T01:15:40.455Z,86.00
2018-12-15T01:18:08.706Z,86.24
2018-12-15T01:20:37.354Z,88.55
2018-12-15T01:23:05.770Z,87.17
2018-12-15T01:25:34.040Z,87.26
2018-12-15T01:28:02.283Z,84.91
2018-12-15T01:30:30.625Z,85.20
2018-12-15T01:32:59.077Z,85.62
2018-12-15T01:35:27.360Z,87.61
2018-12-15T01:37:55.604Z,86.48
2018-12-15T01:40:23.848Z,86.04
2018-12-15T01:42:52.130Z,86.06
2018-12-15T01:45:20.467Z,86.83
2018-12-15T01:47:48.918Z,87.48
2018-12-15T01:50:17.374Z,87.15
2018-12-15T01:52:46.126Z,87.73
2018-12-15T01:55:14.593Z,88.18
2018-12-15T01:57:43.137Z,86.44
2018-12-15T02:00:12.981Z,87.26
2018-12-15T02:02:41.466Z,86.49
2018-12-15T02:05:09.811Z,86.86
2018-12-15T02:07:38.292Z,85.49
2018-12-15T02:10:08.216Z,85.74
2018-12-15T02:12:36.555Z,86.04
2018-12-15T02:15:07.177Z,86.89
2018-12-15T02:17:35.476Z,86.95
2018-12-15T02:20:04.679Z,87.47
2018-12-15T02:22:33.008Z,87.45
2018-12-15T02:25:01.378Z,86.79
2018-12-15T02:27:29.821Z,86.42
2018-12-15T02:29:58.253Z,87.26
2018-12-15T02:32:26.759Z,87.37
2018-12-15T02:34:54.967Z,87.51
2018-12-15T02:37:23.275Z,86.84
2018-12-15T02:39:51.563Z,87.60
2018-12-15T02:42:19.912Z,88.22
2018-12-15T02:44:48.375Z,86.78
2018-12-15T02:47:16.809Z,86.70
2018-12-15T02:49:45.139Z,86.38
2018-12-15T02:52:13.866Z,86.77
2018-12-15T02:54:42.214Z,85.71
2018-12-15T02:57:10.555Z,86.27
2018-12-15T02:59:38.957Z,87.54
2018-12-15T03:02:07.278Z,87.88
2018-12-15T03:04:35.493Z,88.43
2018-12-15T03:07:03.759Z,88.76
2018-12-15T03:09:32.102Z,88.00
2018-12-15T03:12:00.319Z,86.72
2018-12-15T03:14:28.847Z,87.05
2018-12-15T03:17:06.691Z,87.76
2018-12-15T03:19:35.047Z,87.98
2018-12-15T03:22:03.496Z,88.26
2018-12-15T03:24:31.781Z,88.31
2018-12-15T03:27:00.109Z,88.29
2018-12-15T03:29:28.604Z,87.61
2018-12-15T03:31:56.846Z,87.74
2018-12-15T03:34:25.059Z,87.54
2018-12-15T03:36:53.328Z,87.50
2018-12-15T03:39:21.742Z,87.81
2018-12-15T03:41:50.472Z,88.78
2018-12-15T03:44:18.971Z,89.02
2018-12-15T03:46:47.254Z,88.62
2018-12-15T03:49:15.712Z,89.30
2018-12-15T03:51:44.189Z,88.73
2018-12-15T03:54:12.688Z,89.53
2018-12-15T03:56:41.080Z,89.23
2018-12-15T03:59:09.493Z,89.09
2018-12-15T04:01:38.041Z,90.87
2018-12-15T04:04:06.476Z,89.52
2018-12-15T04:06:34.835Z,90.27
2018-12-15T04:09:04.636Z,89.03
2018-12-15T04:11:32.910Z,90.16
2018-12-15T04:14:01.452Z,90.19
2018-12-15T04:16:29.816Z,89.35
2018-12-15T04:18:58.087Z,88.34
2018-12-15T04:21:26.637Z,86.68
2018-12-15T04:23:55.086Z,84.88
2018-12-15T04:26:23.483Z,85.31
2018-12-15T04:28:51.898Z,85.80
2018-12-15T04:31:20.192Z,86.14
2018-12-15T04:33:48.793Z,87.50
2018-12-15T04:36:18.820Z,88.14
2018-12-15T04:38:47.390Z,89.33
2018-12-15T04:41:15.882Z,90.07
2018-12-15T04:43:44.483Z,90.06
2018-12-15T04:46:12.932Z,90.57
2018-12-15T04:48:41.254Z,90.08
2018-12-15T04:51:09.975Z,90.80
2018-12-15T04:53:38.489Z,92.05
2018-12-15T04:56:06.928Z,93.20
2018-12-15T04:58:35.231Z,90.97
2018-12-15T05:01:03.705Z,90.51
2018-12-15T05:03:32.199Z,91.12
2018-12-15T05:06:00.450Z,92.45
2018-12-15T05:08:28.995Z,94.07
2018-12-15T05:10:57.507Z,95.96
2018-12-15T05:13:26.028Z,95.75
2018-12-15T05:15:54.740Z,94.61
2018-12-15T05:18:23.278Z,93.91
2018-12-15T05:20:52.312Z,89.38
2018-12-15T05:23:21.380Z,88.65
2018-12-15T05:25:49.796Z,87.90
2018-12-15T05:28:18.146Z,86.29
2018-12-15T05:30:46.711Z,85.93
2018-12-15T05:33:16.064Z,87.16
2018-12-15T05:35:44.473Z,87.21
2018-12-15T05:38:12.698Z,87.75
2018-12-15T05:40:41.473Z,89.20
2018-12-15T05:43:09.832Z,88.62
2018-12-15T05:45:38.330Z,87.91
2018-12-15T05:48:06.604Z,89.07
2018-12-15T05:50:35.884Z,88.42
2018-12-15T05:53:04.250Z,88.48
2018-12-15T05:55:32.617Z,90.36
2018-12-15T05:58:01.187Z,89.17
2018-12-15T06:00:29.826Z,90.37
2018-12-15T06:02:58.383Z,90.05
2018-12-15T06:05:27.328Z,91.04
2018-12-15T06:07:55.996Z,90.53
2018-12-15T06:10:24.482Z,90.88
2018-12-15T06:12:53.350Z,92.65
2018-12-15T06:15:21.723Z,92.25
2018-12-15T06:17:49.992Z,93.16
2018-12-15T06:20:18.570Z,91.12
2018-12-15T06:22:46.965Z,90.57
2018-12-15T06:25:15.983Z,89.54
2018-12-15T06:27:44.442Z,87.64
2018-12-15T06:30:13.099Z,87.14
2018-12-15T06:32:41.501Z,86.88
2018-12-15T06:35:10.370Z,87.05
2018-12-15T06:37:39.100Z,87.45
2018-12-15T06:40:07.773Z,89.27
2018-12-15T06:42:36.273Z,89.96
2018-12-15T06:45:05.427Z,91.09
2018-12-15T06:47:34.010Z,89.66
2018-12-15T06:50:02.960Z,89.97
2018-12-15T06:52:31.944Z,89.42
2018-12-15T06:55:03.386Z,88.00
2018-12-15T06:57:32.264Z,85.15
2018-12-15T07:00:00.928Z,84.37
2018-12-15T07:02:30.417Z,85.00
2018-12-15T07:04:59.042Z,85.68
2018-12-15T07:07:27.652Z,85.47
2018-12-15T07:09:56.153Z,86.05
2018-12-15T07:12:24.694Z,86.27
2018-12-15T07:14:53.115Z,89.71
2018-12-15T07:17:21.557Z,87.60
2018-12-15T07:19:50.174Z,88.87
2018-12-15T07:22:18.779Z,88.88
2018-12-15T07:24:47.145Z,87.87
2018-12-15T07:27:21.351Z,86.06
2018-12-15T07:29:49.752Z,82.97
2018-12-15T07:32:18.363Z,84.18
2018-12-15T07:34:46.633Z,84.35
2018-12-15T07:37:15.054Z,84.03
2018-12-15T07:39:43.389Z,85.34
2018-12-15T07:42:11.787Z,87.30
2018-12-15T07:44:40.114Z,87.17
2018-12-15T07:47:08.637Z,83.94
2018-12-15T07:49:37.131Z,85.03
2018-12-15T07:52:05.875Z,87.07
2018-12-15T07:54:34.698Z,86.52
2018-12-15T07:57:03.447Z,85.13
2018-12-15T07:59:31.975Z,84.05
2018-12-15T08:02:00.411Z,83.07
2018-12-15T08:04:28.790Z,83.59
2018-12-15T08:06:56.972Z,80.98
2018-12-15T08:09:26.906Z,80.23
2018-12-15T08:12:00.848Z,78.57
2018-12-15T08:14:29.301Z,77.45
2018-12-15T08:16:57.707Z,77.29
2018-12-15T08:19:26.305Z,76.57
2018-12-15T08:21:54.803Z,78.29
2018-12-15T08:24:23.775Z,78.72
2018-12-15T08:26:52.195Z,80.28
2018-12-15T08:29:20.847Z,81.05
2018-12-15T08:31:49.322Z,81.00
2018-12-15T08:34:17.759Z,79.48
2018-12-15T08:36:46.071Z,80.15
2018-12-15T08:39:14.402Z,80.46
2018-12-15T08:41:42.764Z,81.07
2018-12-15T08:44:11.007Z,80.78
2018-12-15T08:46:39.270Z,79.71
2018-12-15T08:49:07.659Z,79.63
2018-12-15T08:51:36.120Z,80.31
2018-12-15T08:54:04.703Z,80.60
2018-12-15T08:56:34.205Z,81.33
2018-12-15T08:59:02.818Z,80.87
2018-12-15T09:01:31.101Z,80.51
2018-12-15T09:03:59.581Z,80.88
2018-12-15T09:06:28.048Z,81.26
2018-12-15T09:08:56.431Z,81.23
2018-12-15T09:11:24.813Z,81.79
2018-12-15T09:13:53.164Z,82.00
2018-12-15T09:16:26.463Z,82.47
2018-12-15T09:18:53.303Z,82.10
2018-12-15T09:21:21.869Z,82.85
2018-12-15T09:23:50.375Z,82.25
2018-12-15T09:26:18.738Z,82.62
2018-12-15T09:28:47.091Z,81.86
2018-12-15T09:31:15.496Z,82.22
2018-12-15T09:33:44.073Z,82.21
2018-12-15T09:36:12.762Z,82.06
2018-12-15T09:38:41.271Z,81.67
2018-12-15T09:41:09.673Z,82.11
2018-12-15T09:43:38.213Z,81.36
2018-12-15T09:46:06.582Z,81.23
2018-12-15T09:48:35.079Z,81.15
2018-12-15T09:51:03.648Z,81.20
2018-12-15T09:53:32.414Z,81.95
2018-12-15T09:56:01.137Z,81.71
2018-12-15T09:58:29.615Z,82.01
2018-12-15T10:00:58.125Z,81.61
2018-12-15T10:03:26.508Z,82.12
2018-12-15T10:05:54.849Z,82.86
2018-12-15T10:08:23.486Z,83.11
2018-12-15T10:10:51.772Z,83.42
2018-12-15T10:13:19.995Z,82.85
2018-12-15T10:15:49.123Z,82.83
2018-12-15T10:18:17.526Z,83.02
2018-12-15T10:20:45.853Z,83.29
2018-12-15T10:23:14.226Z,82.54
2018-12-15T10:25:42.658Z,82.63
2018-12-15T10:28:11.427Z,82.41
2018-12-15T10:30:45.325Z,81.09
2018-12-15T10:33:13.607Z,81.88
2018-12-15T10:35:42.036Z,81.98
2018-12-15T10:38:10.464Z,80.86
2018-12-15T10:40:38.923Z,81.52
2018-12-15T10:43:07.340Z,82.47
2018-12-15T10:45:35.795Z,82.22
2018-12-15T10:48:04.488Z,82.45
2018-12-15T10:50:32.845Z,83.34
2018-12-15T10:53:01.131Z,83.73
2018-12-15T10:55:29.586Z,84.04
2018-12-15T10:57:58.013Z,83.40
2018-12-15T11:00:32.470Z,83.56
2018-12-15T11:03:00.893Z,82.80
2018-12-15T11:05:29.211Z,82.48
2018-12-15T11:07:57.527Z,82.37
2018-12-15T11:10:25.872Z,83.02
2018-12-15T11:12:54.003Z,83.74
2018-12-15T11:15:22.378Z,84.45
2018-12-15T11:17:50.665Z,84.69
2018-12-15T11:20:19.071Z,84.28
2018-12-15T11:22:47.280Z,84.34
2018-12-15T11:25:15.850Z,85.04
2018-12-15T11:27:44.183Z,84.73
2018-12-15T11:30:12.761Z,84.08
2018-12-15T11:32:41.400Z,84.25
2018-12-15T11:35:09.742Z,84.57
2018-12-15T11:37:38.152Z,83.84
2018-12-15T11:40:07.283Z,82.17
2018-12-15T11:42:35.583Z,81.13
2018-12-15T11:45:04.280Z,81.58
2018-12-15T11:47:33.085Z,80.93
2018-12-15T11:50:01.809Z,81.27
2018-12-15T11:52:30.223Z,81.78
2018-12-15T11:54:58.821Z,82.70
2018-12-15T11:57:27.457Z,83.09
2018-12-15T11:59:55.954Z,83.54
2018-12-15T12:02:24.424Z,84.27
2018-12-15T12:04:52.941Z,84.24
2018-12-15T12:07:22.159Z,84.73
2018-12-15T12:09:50.949Z,84.15
2018-12-15T12:12:19.360Z,83.75
2018-12-15T12:14:47.865Z,83.75
2018-12-15T12:17:16.506Z,83.43
2018-12-15T12:19:50.197Z,83.12
2018-12-15T12:22:15.870Z,83.61
2018-12-15T12:24:44.759Z,83.44
2018-12-15T12:27:13.405Z,83.45
2018-12-15T12:29:43.249Z,83.97
2018-12-15T12:32:11.767Z,84.13
2018-12-15T12:34:40.159Z,83.99
2018-12-15T12:37:08.590Z,83.95
2018-12-15T12:39:36.900Z,83.42
2018-12-15T12:42:05.307Z,83.41
2018-12-15T12:44:33.776Z,83.50
2018-12-15T12:47:03.240Z,82.55
2018-12-15T12:49:31.593Z,82.61
2018-12-15T12:52:00.134Z,82.67
2018-12-15T12:54:28.387Z,82.16
2018-12-15T12:56:56.669Z,82.41
2018-12-15T12:59:25.123Z,82.47
2018-12-15T13:01:53.559Z,82.60
2018-12-15T13:04:21.857Z,82.64
2018-12-15T13:06:51.408Z,82.89
2018-12-15T13:09:20.160Z,83.37
2018-12-15T13:11:48.694Z,83.78
2018-12-15T13:14:17.155Z,84.23
2018-12-15T13:16:45.492Z,84.96
2018-12-15T13:19:13.852Z,85.67
2018-12-15T13:21:42.146Z,85.84
2018-12-15T13:24:10.492Z,86.30
2018-12-15T13:26:38.771Z,86.51
2018-12-15T13:29:07.211Z,86.36
2018-12-15T13:31:35.723Z,86.67
2018-12-15T13:34:04.315Z,87.00
2018-12-15T13:36:32.590Z,86.57
2018-12-15T13:39:01.020Z,86.54
2018-12-15T13:41:29.302Z,86.18
2018-12-15T13:43:57.587Z,87.00
2018-12-15T13:46:25.916Z,87.15
2018-12-15T13:48:54.173Z,87.85
2018-12-15T13:51:22.437Z,88.01
2018-12-15T13:53:51.371Z,88.11
2018-12-15T13:56:19.783Z,88.52
2018-12-15T13:58:48.099Z,88.00
2018-12-15T14:01:16.496Z,87.63
2018-12-15T14:03:44.839Z,86.83
2018-12-15T14:06:13.207Z,86.92
2018-12-15T14:08:41.809Z,86.76
2018-12-15T14:11:10.234Z,86.19
2018-12-15T14:13:38.783Z,86.83
2018-12-15T14:16:07.652Z,86.41
2018-12-15T14:18:37.299Z,85.27
2018-12-15T14:21:05.676Z,86.18
2018-12-15T14:23:34.087Z,86.28
2018-12-15T14:26:04.759Z,86.82
2018-12-15T14:28:33.418Z,87.92
2018-12-15T14:31:01.824Z,88.26
2018-12-15T14:33:30.166Z,87.76
2018-12-15T14:35:58.815Z,86.77
2018-12-15T14:38:27.537Z,87.00
2018-12-15T14:40:56.040Z,87.41
2018-12-15T14:46:22.341Z,88.21
2018-12-15T14:48:50.583Z,88.58
2018-12-15T14:51:18.963Z,88.68
2018-12-15T14:53:47.399Z,88.66
2018-12-15T14:56:15.754Z,88.70
2018-12-15T14:58:43.984Z,89.28
2018-12-15T15:01:12.700Z,89.04
2018-12-15T15:03:41.131Z,89.26
2018-12-15T15:06:09.699Z,89.75
2018-12-15T15:08:38.331Z,89.98
2018-12-15T15:11:06.959Z,90.29
2018-12-15T15:13:35.431Z,90.21
2018-12-15T15:16:03.859Z,90.17
2018-12-15T15:18:32.502Z,90.56
2018-12-15T15:21:00.823Z,90.30
2018-12-15T15:23:29.141Z,90.23
2018-12-15T15:25:57.479Z,91.09
2018-12-15T15:28:25.769Z,91.66
2018-12-15T15:30:53.992Z,91.61
2018-12-15T15:33:22.244Z,91.48
2018-12-15T15:35:50.651Z,91.74
2018-12-15T15:38:18.971Z,91.53
2018-12-15T15:40:47.533Z,91.07
2018-12-15T15:43:15.859Z,91.37
2018-12-15T15:45:44.277Z,90.93
2018-12-15T15:48:12.791Z,91.02
2018-12-15T15:50:41.511Z,91.64
2018-12-15T15:53:09.734Z,91.97
2018-12-15T15:55:38.118Z,91.03
2018-12-15T15:58:06.714Z,91.48
2018-12-15T16:00:35.224Z,91.37
2018-12-15T16:03:03.731Z,91.83
2018-12-15T16:05:32.245Z,91.98
2018-12-15T16:08:00.609Z,92.43
2018-12-15T16:10:29.186Z,92.78
2018-12-15T16:12:57.488Z,92.22
2018-12-15T16:15:26.122Z,92.74
2018-12-15T16:17:54.634Z,93.21
2018-12-15T16:20:23.489Z,93.14
2018-12-15T16:22:51.935Z,93.06
2018-12-15T16:25:21.141Z,92.91
2018-12-15T16:27:49.391Z,93.15
2018-12-15T16:30:17.923Z,93.66
2018-12-15T16:32:46.424Z,93.36
2018-12-15T16:35:14.882Z,92.88
2018-12-15T16:37:43.278Z,92.85
2018-12-15T16:40:11.630Z,92.42
2018-12-15T16:42:40.006Z,92.79
2018-12-15T16:45:10.404Z,93.00
2018-12-15T16:47:38.944Z,93.39
2018-12-15T16:50:10.986Z,93.75
2018-12-15T16:52:39.761Z,93.89
2018-12-15T16:55:08.478Z,93.88
2018-12-15T16:57:36.787Z,93.84
2018-12-15T17:00:07.772Z,93.22
2018-12-15T17:02:36.440Z,91.66
2018-12-15T17:05:05.359Z,91.91
2018-12-15T17:07:33.687Z,92.18
2018-12-15T17:10:02.077Z,92.65
2018-12-15T17:12:30.478Z,92.90
2018-12-15T17:14:59.903Z,92.77
2018-12-15T17:17:28.604Z,92.51
2018-12-15T17:19:57.447Z,92.66
2018-12-15T17:22:26.101Z,92.65
2018-12-15T17:24:54.650Z,92.93
2018-12-15T17:27:36.039Z,92.98
2018-12-15T17:30:05.589Z,92.64
2018-12-15T17:32:33.828Z,92.30
2018-12-15T17:35:02.179Z,93.30
2018-12-15T17:37:31.000Z,93.32
2018-12-15T17:39:59.233Z,94.02
2018-12-15T17:42:27.806Z,93.11
2018-12-15T17:47:24.153Z,92.60
2018-12-15T17:49:52.406Z,92.30
2018-12-15T17:52:20.660Z,92.17
2018-12-15T17:54:49.126Z,91.62
2018-12-15T17:57:17.373Z,91.09
2018-12-15T17:59:45.839Z,91.21
2018-12-15T18:02:14.279Z,91.38
2018-12-15T18:04:42.861Z,90.68
2018-12-15T18:07:11.136Z,90.30
2018-12-15T18:09:39.392Z,90.02
2018-12-15T18:12:08.117Z,90.20
2018-12-15T18:14:36.436Z,88.95
2018-12-15T18:17:04.704Z,88.93
2018-12-15T18:19:33.806Z,88.92
2018-12-15T18:22:02.099Z,89.01
2018-12-15T18:24:30.495Z,88.20
2018-12-15T18:26:58.866Z,87.85
2018-12-15T18:29:27.380Z,88.83
2018-12-15T18:31:55.834Z,88.85
2018-12-15T18:34:24.761Z,90.48
2018-12-15T18:36:53.203Z,91.50
2018-12-15T18:39:22.227Z,90.81
2018-12-15T18:41:50.736Z,91.27
2018-12-15T18:44:19.329Z,90.14
2018-12-15T18:46:48.163Z,89.06
2018-12-15T18:49:18.228Z,88.24
2018-12-15T18:51:46.903Z,88.33
2018-12-15T18:54:15.330Z,88.60
2018-12-15T18:56:43.909Z,88.30
2018-12-15T18:59:12.885Z,88.12
2018-12-15T19:01:41.463Z,87.67
2018-12-15T19:04:09.891Z,89.16
2018-12-15T19:06:38.464Z,90.19
2018-12-15T19:09:08.047Z,90.12
2018-12-15T19:11:36.798Z,89.41
2018-12-15T19:14:05.118Z,89.59
2018-12-15T19:16:33.464Z,90.62
2018-12-15T19:19:02.017Z,91.51
2018-12-15T19:21:30.560Z,91.86
2018-12-15T19:23:59.043Z,91.91
2018-12-15T19:26:27.627Z,92.11
2018-12-15T19:28:57.415Z,91.77
2018-12-15T19:31:26.837Z,90.44
2018-12-15T19:33:55.409Z,90.31
2018-12-15T19:36:24.341Z,91.15
2018-12-15T19:38:53.293Z,90.74
2018-12-15T19:41:22.019Z,88.56
2018-12-15T19:43:51.880Z,88.76
2018-12-15T19:46:20.390Z,90.15
2018-12-15T19:48:49.030Z,91.46
2018-12-15T19:51:29.583Z,91.65
2018-12-15T19:53:55.607Z,91.31
2018-12-15T19:56:26.905Z,91.94
2018-12-15T19:58:55.788Z,92.37
2018-12-15T20:01:24.367Z,91.48
2018-12-15T20:03:52.722Z,91.69
2018-12-15T20:06:21.365Z,90.22
2018-12-15T20:08:49.922Z,89.25
2018-12-15T20:11:18.272Z,88.85
2018-12-15T20:13:46.686Z,89.67
2018-12-15T20:16:15.069Z,88.79
2018-12-15T20:18:46.746Z,89.77
2018-12-15T20:21:15.052Z,89.36
2018-12-15T20:23:43.392Z,89.76
2018-12-15T20:26:11.809Z,88.89
2018-12-15T20:28:40.141Z,89.17
2018-12-15T20:31:08.623Z,88.51
2018-12-15T20:33:37.069Z,87.73
2018-12-15T20:36:05.566Z,87.36
2018-12-15T20:38:33.938Z,87.56
2018-12-15T20:41:02.173Z,87.64
2018-12-15T20:43:30.364Z,87.12
2018-12-15T20:45:58.659Z,87.59
2018-12-15T20:48:26.958Z,86.31
2018-12-15T20:50:55.415Z,85.92
2018-12-15T20:53:23.875Z,85.54
2018-12-15T20:55:52.333Z,86.01
2018-12-15T20:58:20.903Z,86.18
2018-12-15T21:00:49.296Z,86.59
2018-12-15T21:03:17.900Z,86.10
2018-12-15T21:05:46.923Z,87.83
2018-12-15T21:08:15.495Z,88.08
2018-12-15T21:10:44.080Z,88.64
2018-12-15T21:13:12.503Z,88.83
2018-12-15T21:15:44.379Z,88.69
2018-12-15T21:18:12.711Z,88.24
2018-12-15T21:20:43.932Z,87.57
2018-12-15T21:23:12.214Z,88.17
2018-12-15T21:25:40.572Z,87.92
2018-12-15T21:28:08.895Z,87.01
2018-12-15T21:30:37.168Z,85.35
2018-12-15T21:33:05.525Z,85.54
2018-12-15T21:35:34.008Z,86.24
2018-12-15T21:38:02.355Z,87.33
2018-12-15T21:40:30.867Z,87.95
2018-12-15T21:42:59.270Z,87.62
2018-12-15T21:45:28.173Z,88.23
2018-12-15T21:47:57.798Z,87.62
2018-12-15T21:50:26.348Z,88.41
2018-12-15T21:52:54.662Z,89.14
2018-12-15T21:55:24.516Z,89.93
2018-12-15T21:57:53.056Z,89.70
2018-12-15T22:00:21.386Z,90.20
2018-12-15T22:02:49.955Z,89.09
2018-12-15T22:05:18.427Z,88.17
2018-12-15T22:07:46.800Z,88.08
2018-12-15T22:10:15.743Z,88.03
2018-12-15T22:12:44.183Z,88.00
2018-12-15T22:15:12.683Z,87.11
2018-12-15T22:17:41.113Z,88.54
2018-12-15T22:20:10.268Z,87.29
2018-12-15T22:22:39.281Z,87.50
2018-12-15T22:25:08.213Z,86.67
2018-12-15T22:27:36.746Z,86.55
2018-12-15T22:30:06.158Z,86.12
2018-12-15T22:32:34.577Z,86.20
2018-12-15T22:35:03.333Z,85.72
2018-12-15T22:37:31.883Z,84.65
2018-12-15T22:40:00.721Z,85.35
2018-12-15T22:42:29.284Z,85.93
2018-12-15T22:44:57.657Z,86.35
2018-12-15T22:47:26.295Z,85.93
2018-12-15T22:49:54.493Z,86.54
2018-12-15T22:52:22.903Z,86.37
2018-12-15T22:54:51.224Z,86.42
2018-12-15T22:57:19.551Z,86.93
2018-12-15T22:59:47.714Z,86.60
2018-12-15T23:02:16.028Z,85.91
2018-12-15T23:04:44.303Z,84.78
2018-12-15T23:07:12.496Z,86.10
2018-12-15T23:09:40.655Z,86.76
2018-12-15T23:12:08.938Z,88.16
2018-12-15T23:14:37.265Z,89.29
2018-12-15T23:17:05.564Z,89.93
2018-12-15T23:19:34.050Z,89.80
2018-12-15T23:22:03.185Z,88.54
2018-12-15T23:24:31.471Z,87.41
2018-12-15T23:27:03.271Z,87.11
2018-12-15T23:29:31.748Z,86.48
2018-12-15T23:32:01.246Z,85.38
2018-12-15T23:34:29.549Z,84.10
2018-12-15T23:36:58.009Z,83.33
2018-12-15T23:39:26.351Z,82.90
2018-12-15T23:41:54.570Z,82.67
2018-12-15T23:44:22.838Z,82.66
2018-12-15T23:46:51.125Z,81.87
2018-12-15T23:49:19.333Z,81.75
2018-12-15T23:51:47.824Z,81.63
2018-12-15T23:54:16.342Z,81.55
2018-12-15T23:56:44.715Z,81.27
2018-12-15T23:59:13.020Z,80.87
